createdAt,value
2019-06-07T00:00:37.180Z,79.64
2019-06-07T00:01:21.973Z,79.34
2019-06-07T00:02:20.891Z,79.74
2019-06-07T00:03:27.420Z,78.94
2019-06-07T00:04:21.889Z,79.14
2019-06-07T00:05:20.863Z,78.67
2019-06-07T00:06:24.914Z,79.14
2019-06-07T00:07:22.068Z,78.97
2019-06-07T00:08:27.146Z,78.97
2019-06-07T00:09:22.774Z,79.48
2019-06-07T00:10:36.016Z,79.94
2019-06-07T00:11:21.954Z,79.44
2019-06-07T00:12:21.425Z,79.54
2019-06-07T00:13:20.777Z,78.94
2019-06-07T00:14:21.346Z,79.48
2019-06-07T00:15:27.983Z,78.94
2019-06-07T00:16:23.203Z,78.74
2019-06-07T00:17:20.737Z,78.57
2019-06-07T00:18:25.692Z,79.24
2019-06-07T00:19:21.715Z,78.88
2019-06-07T00:20:23.670Z,78.88
2019-06-07T00:21:53.051Z,78.47
2019-06-07T00:22:32.167Z,78.57
2019-06-07T00:23:22.939Z,78.53
2019-06-07T00:24:21.863Z,77.86
2019-06-07T00:25:24.266Z,78.27
2019-06-07T00:26:21.418Z,79.17
2019-06-07T00:27:22.468Z,78.77
2019-06-07T00:28:20.601Z,78.37
2019-06-07T00:29:21.796Z,78.06
2019-06-07T00:30:36.242Z,78.37
2019-06-07T00:31:24.135Z,78.97
2019-06-07T00:32:21.922Z,78.50
2019-06-07T00:33:23.984Z,78.67
2019-06-07T00:34:23.136Z,78.81
2019-06-07T00:35:22.394Z,79.52
2019-06-07T00:36:23.035Z,79.21
2019-06-07T00:37:23.428Z,79.48
2019-06-07T00:38:21.943Z,79.41
2019-06-07T00:39:25.079Z,78.91
2019-06-07T00:40:31.452Z,79.11
2019-06-07T00:41:22.338Z,79.62
2019-06-07T00:42:23.384Z,79.48
2019-06-07T00:43:28.013Z,79.62
2019-06-07T00:44:23.200Z,78.91
2019-06-07T00:45:22.319Z,79.08
2019-06-07T00:46:21.661Z,79.08
2019-06-07T00:47:24.926Z,78.37
2019-06-07T00:48:31.306Z,78.47
2019-06-07T00:49:39.857Z,78.30
2019-06-07T00:50:24.184Z,78.41
2019-06-07T00:51:21.885Z,78.30
2019-06-07T00:53:11.597Z,78.41
2019-06-07T00:53:29.840Z,78.50
2019-06-07T00:54:22.458Z,78.30
2019-06-07T00:55:23.432Z,78.30
2019-06-07T00:56:22.198Z,78.41
2019-06-07T00:57:22.220Z,78.00
2019-06-07T00:58:24.729Z,78.10
2019-06-07T00:59:28.420Z,78.00
2019-06-07T01:00:24.654Z,78.41
2019-06-07T01:01:22.689Z,78.30
2019-06-07T01:02:25.689Z,78.30
2019-06-07T01:03:25.234Z,78.20
2019-06-07T01:04:22.845Z,78.61
2019-06-07T01:05:23.430Z,79.32
2019-06-07T01:06:22.934Z,79.32
2019-06-07T01:07:21.818Z,78.50
2019-06-07T01:08:22.765Z,78.81
2019-06-07T01:09:23.904Z,79.32
2019-06-07T01:10:43.370Z,79.01
2019-06-07T01:11:23.486Z,78.91
2019-06-07T01:12:22.077Z,79.01
2019-06-07T01:13:22.758Z,79.52
2019-06-07T01:14:22.626Z,79.52
2019-06-07T01:15:23.455Z,79.52
2019-06-07T01:16:23.442Z,79.52
2019-06-07T01:17:27.703Z,80.02
2019-06-07T01:18:41.221Z,79.99
2019-06-07T01:19:22.254Z,78.67
2019-06-07T01:20:22.808Z,78.47
2019-06-07T01:21:23.805Z,78.77
2019-06-07T01:22:23.552Z,78.77
2019-06-07T01:24:01.430Z,78.97
2019-06-07T01:24:24.452Z,78.47
2019-06-07T01:25:22.741Z,78.88
2019-06-07T01:26:23.797Z,78.88
2019-06-07T01:27:23.795Z,78.50
2019-06-07T01:28:21.367Z,78.91
2019-06-07T01:29:21.662Z,78.91
2019-06-07T01:30:24.259Z,78.61
2019-06-07T01:31:23.009Z,78.91
2019-06-07T01:32:21.101Z,79.21
2019-06-07T01:33:20.871Z,78.50
2019-06-07T01:34:21.139Z,78.41
2019-06-07T01:35:20.599Z,78.47
2019-06-07T01:36:21.695Z,77.80
2019-06-07T01:37:22.606Z,78.30
2019-06-07T01:38:21.946Z,77.97
2019-06-07T01:39:21.094Z,78.30
2019-06-07T01:40:20.833Z,77.80
2019-06-07T01:41:23.060Z,78.20
2019-06-07T01:42:22.669Z,78.30
2019-06-07T01:43:26.158Z,78.61
2019-06-07T01:44:24.171Z,79.01
2019-06-07T01:45:21.339Z,78.81
2019-06-07T01:46:20.745Z,78.50
2019-06-07T01:47:21.258Z,78.91
2019-06-07T01:48:23.131Z,78.61
2019-06-07T01:49:19.770Z,79.01
2019-06-07T01:50:22.968Z,79.15
2019-06-07T01:51:21.927Z,78.91
2019-06-07T01:52:23.524Z,78.71
2019-06-07T01:53:22.429Z,78.61
2019-06-07T01:54:53.143Z,78.50
2019-06-07T01:55:23.593Z,78.34
2019-06-07T01:56:22.581Z,78.41
2019-06-07T01:57:36.680Z,78.34
2019-06-07T01:58:22.261Z,78.41
2019-06-07T01:59:21.904Z,78.24
2019-06-07T02:00:21.575Z,77.94
2019-06-07T02:01:21.137Z,78.44
2019-06-07T02:02:20.110Z,78.34
2019-06-07T02:03:22.352Z,78.24
2019-06-07T02:04:23.305Z,78.75
2019-06-07T02:05:21.041Z,78.75
2019-06-07T02:06:21.030Z,78.64
2019-06-07T02:07:23.852Z,79.25
2019-06-07T02:08:21.734Z,78.75
2019-06-07T02:09:20.851Z,79.08
2019-06-07T02:10:22.144Z,78.78
2019-06-07T02:11:20.959Z,79.08
2019-06-07T02:12:28.149Z,79.69
2019-06-07T02:13:21.264Z,80.10
2019-06-07T02:14:19.660Z,80.50
2019-06-07T02:15:21.714Z,80.06
2019-06-07T02:16:19.399Z,79.59
2019-06-07T02:17:20.251Z,79.59
2019-06-07T02:18:21.790Z,79.59
2019-06-07T02:19:19.496Z,79.39
2019-06-07T02:20:20.372Z,79.79
2019-06-07T02:21:23.202Z,79.49
2019-06-07T02:22:22.881Z,80.20
2019-06-07T02:23:20.738Z,80.50
2019-06-07T02:24:24.477Z,80.20
2019-06-07T02:25:43.771Z,80.30
2019-06-07T02:26:20.496Z,79.29
2019-06-07T02:27:20.461Z,78.88
2019-06-07T02:28:30.103Z,79.08
2019-06-07T02:29:20.490Z,79.08
2019-06-07T02:31:21.738Z,79.53
2019-06-07T02:32:19.211Z,80.24
2019-06-07T02:33:19.232Z,80.34
2019-06-07T02:34:19.176Z,80.00
2019-06-07T02:35:19.183Z,79.59
2019-06-07T02:36:19.222Z,80.00
2019-06-07T02:37:19.147Z,79.73
2019-06-07T02:38:19.133Z,80.20
2019-06-07T02:39:19.132Z,79.63
2019-06-07T02:40:19.135Z,79.73
2019-06-07T02:41:19.101Z,80.00
2019-06-07T02:42:19.089Z,79.90
2019-06-07T02:43:19.087Z,79.90
2019-06-07T02:44:19.066Z,80.40
2019-06-07T02:45:19.068Z,79.49
2019-06-07T02:46:26.527Z,79.13
2019-06-07T02:47:20.040Z,79.19
2019-06-07T02:48:19.031Z,79.59
2019-06-07T02:49:19.026Z,79.53
2019-06-07T02:50:19.019Z,79.59
2019-06-07T02:51:18.985Z,80.54
2019-06-07T02:52:18.985Z,80.20
2019-06-07T02:53:18.959Z,80.24
2019-06-07T02:54:18.949Z,80.04
2019-06-07T02:55:18.974Z,79.79
2019-06-07T02:56:43.943Z,80.24
2019-06-07T02:57:19.924Z,79.79
2019-06-07T02:58:18.909Z,80.13
2019-06-07T02:59:18.901Z,80.10
2019-06-07T03:00:41.218Z,79.59
2019-06-07T03:01:19.874Z,79.79
2019-06-07T03:02:18.891Z,79.59
2019-06-07T03:03:18.921Z,79.46
2019-06-07T03:04:18.843Z,79.86
2019-06-07T03:05:18.851Z,79.25
2019-06-07T03:06:18.825Z,79.15
2019-06-07T03:07:18.818Z,79.35
2019-06-07T03:08:18.796Z,78.95
2019-06-07T03:09:18.792Z,79.66
2019-06-07T03:10:18.793Z,80.06
2019-06-07T03:11:18.785Z,80.06
2019-06-07T03:12:18.758Z,79.75
2019-06-07T03:13:18.792Z,79.55
2019-06-07T03:14:18.744Z,79.15
2019-06-07T03:15:32.784Z,79.25
2019-06-07T03:16:19.711Z,79.25
2019-06-07T03:17:18.714Z,79.15
2019-06-07T03:18:18.732Z,79.86
2019-06-07T03:19:18.674Z,79.66
2019-06-07T03:20:18.687Z,79.55
2019-06-07T03:21:18.648Z,79.55
2019-06-07T03:22:18.660Z,79.46
2019-06-07T03:23:18.628Z,79.86
2019-06-07T03:24:18.629Z,78.85
2019-06-07T03:25:18.636Z,78.64
2019-06-07T03:26:18.607Z,79.55
2019-06-07T03:27:41.596Z,79.35
2019-06-07T03:28:19.592Z,79.15
2019-06-07T03:29:18.564Z,79.05
2019-06-07T03:31:19.544Z,79.35
2019-06-07T03:32:18.623Z,78.75
2019-06-07T03:33:18.517Z,78.34
2019-06-07T03:34:18.503Z,78.95
2019-06-07T03:35:18.510Z,78.58
2019-06-07T03:36:23.736Z,78.55
2019-06-07T03:37:19.468Z,78.85
2019-06-07T03:38:18.540Z,78.34
2019-06-07T03:39:18.450Z,78.38
2019-06-07T03:40:18.470Z,78.78
2019-06-07T03:41:18.428Z,78.58
2019-06-07T03:42:18.428Z,78.99
2019-06-07T03:43:18.398Z,79.79
2019-06-07T03:44:18.399Z,79.79
2019-06-07T03:45:18.402Z,79.49
2019-06-07T03:46:18.374Z,79.49
2019-06-07T03:47:18.473Z,78.58
2019-06-07T03:48:18.357Z,78.48
2019-06-07T03:49:18.358Z,78.38
2019-06-07T03:50:18.364Z,79.43
2019-06-07T03:51:24.997Z,79.73
2019-06-07T03:52:19.311Z,79.49
2019-06-07T03:53:18.294Z,79.08
2019-06-07T03:54:18.283Z,79.29
2019-06-07T03:55:18.294Z,78.99
2019-06-07T03:56:18.266Z,78.58
2019-06-07T03:57:18.236Z,78.58
2019-06-07T03:58:31.633Z,78.68
2019-06-07T03:59:19.206Z,78.68
2019-06-07T04:00:18.270Z,78.82
2019-06-07T04:01:18.193Z,78.72
2019-06-07T04:02:18.201Z,78.78
2019-06-07T04:03:32.864Z,78.99
2019-06-07T04:04:19.161Z,79.08
2019-06-07T04:05:18.174Z,78.78
2019-06-07T04:06:18.138Z,78.68
2019-06-07T04:07:18.142Z,78.48
2019-06-07T04:08:18.191Z,78.99
2019-06-07T04:09:18.111Z,78.48
2019-06-07T04:10:18.131Z,78.88
2019-06-07T04:11:18.084Z,79.13
2019-06-07T04:12:18.075Z,79.90
2019-06-07T04:13:18.068Z,78.99
2019-06-07T04:14:18.112Z,78.88
2019-06-07T04:15:18.067Z,78.38
2019-06-07T04:16:18.068Z,78.17
2019-06-07T04:17:18.030Z,78.28
2019-06-07T04:18:18.023Z,78.17
2019-06-07T04:19:18.002Z,78.82
2019-06-07T04:20:18.005Z,78.58
2019-06-07T04:21:17.977Z,79.02
2019-06-07T04:22:18.008Z,79.08
2019-06-07T04:23:27.690Z,78.72
2019-06-07T04:24:18.951Z,79.33
2019-06-07T04:25:17.955Z,78.92
2019-06-07T04:26:17.919Z,78.42
2019-06-07T04:27:17.910Z,79.13
2019-06-07T04:28:17.901Z,79.43
2019-06-07T04:29:33.059Z,79.02
2019-06-07T04:30:18.889Z,79.83
2019-06-07T04:31:17.918Z,78.92
2019-06-07T04:32:17.868Z,79.33
2019-06-07T04:33:17.843Z,79.33
2019-06-07T04:34:17.827Z,79.73
2019-06-07T04:35:17.825Z,80.13
2019-06-07T04:36:17.815Z,79.73
2019-06-07T04:37:17.801Z,79.83
2019-06-07T04:38:17.800Z,78.82
2019-06-07T04:39:17.822Z,78.62
2019-06-07T04:40:17.774Z,78.62
2019-06-07T04:41:17.745Z,78.62
2019-06-07T04:42:17.755Z,78.11
2019-06-07T04:43:17.736Z,78.11
2019-06-07T04:44:17.720Z,78.21
2019-06-07T04:45:32.964Z,77.71
2019-06-07T04:46:18.700Z,77.30
2019-06-07T04:47:17.679Z,77.67
2019-06-07T04:48:17.683Z,78.01
2019-06-07T04:49:17.670Z,78.52
2019-06-07T04:50:17.683Z,78.31
2019-06-07T04:51:17.719Z,78.31
2019-06-07T04:52:17.620Z,77.40
2019-06-07T04:53:17.624Z,76.59
2019-06-07T04:54:17.612Z,76.09
2019-06-07T04:55:17.612Z,76.70
2019-06-07T04:56:17.617Z,76.90
2019-06-07T04:57:17.600Z,76.79
2019-06-07T04:58:17.560Z,76.90
2019-06-07T05:00:00.060Z,76.79
2019-06-07T05:00:48.455Z,76.15
2019-06-07T05:01:27.472Z,75.04
2019-06-07T05:02:18.510Z,75.99
2019-06-07T05:03:18.444Z,76.29
2019-06-07T05:04:17.489Z,76.26
2019-06-07T05:05:17.504Z,75.68
2019-06-07T05:06:17.474Z,75.28
2019-06-07T05:07:17.457Z,75.38
2019-06-07T05:08:28.213Z,75.58
2019-06-07T05:09:18.440Z,75.68
2019-06-07T05:10:17.451Z,75.99
2019-06-07T05:11:17.425Z,75.48
2019-06-07T05:12:17.422Z,75.99
2019-06-07T05:13:17.396Z,75.68
2019-06-07T05:14:17.390Z,74.87
2019-06-07T05:15:17.397Z,75.79
2019-06-07T05:16:17.357Z,74.98
2019-06-07T05:17:17.339Z,75.48
2019-06-07T05:18:17.918Z,75.68
2019-06-07T05:19:17.329Z,75.07
2019-06-07T05:20:17.321Z,74.77
2019-06-07T05:21:17.331Z,75.28
2019-06-07T05:22:17.296Z,75.68
2019-06-07T05:23:59.959Z,75.68
2019-06-07T05:24:18.310Z,75.68
2019-06-07T05:25:17.258Z,76.09
2019-06-07T05:26:17.281Z,75.99
2019-06-07T05:27:17.231Z,76.09
2019-06-07T05:28:17.222Z,76.09
2019-06-07T05:29:17.208Z,76.09
2019-06-07T05:30:51.036Z,76.59
2019-06-07T05:31:18.224Z,77.10
2019-06-07T05:32:17.173Z,76.97
2019-06-07T05:33:17.164Z,76.46
2019-06-07T05:34:17.195Z,75.34
2019-06-07T05:35:17.144Z,74.98
2019-06-07T05:36:17.195Z,75.55
2019-06-07T05:37:17.119Z,75.58
2019-06-07T05:38:17.110Z,76.15
2019-06-07T05:39:17.099Z,75.89
2019-06-07T05:40:17.085Z,76.09
2019-06-07T05:41:17.122Z,75.89
2019-06-07T05:42:17.061Z,77.10
2019-06-07T05:43:17.102Z,76.50
2019-06-07T05:44:17.048Z,76.90
2019-06-07T05:45:17.035Z,76.70
2019-06-07T05:46:17.049Z,76.19
2019-06-07T05:47:17.053Z,75.07
2019-06-07T05:48:16.999Z,75.38
2019-06-07T05:49:16.988Z,76.39
2019-06-07T05:50:38.618Z,76.19
2019-06-07T05:51:17.985Z,76.46
2019-06-07T05:52:17.004Z,75.99
2019-06-07T05:53:16.944Z,76.15
2019-06-07T05:54:16.933Z,75.45
2019-06-07T05:55:16.923Z,74.80
2019-06-07T05:56:17.346Z,75.71
2019-06-07T05:57:16.906Z,75.31
2019-06-07T05:58:17.517Z,76.05
2019-06-07T05:59:16.906Z,76.05
2019-06-07T06:00:17.011Z,76.15
2019-06-07T06:02:22.604Z,75.71
2019-06-07T06:03:17.836Z,75.31
2019-06-07T06:04:16.848Z,75.61
2019-06-07T06:05:32.625Z,75.21
2019-06-07T06:06:17.968Z,76.18
2019-06-07T06:07:16.903Z,75.51
2019-06-07T06:08:17.437Z,74.60
2019-06-07T06:09:16.780Z,74.30
2019-06-07T06:10:16.746Z,74.60
2019-06-07T06:11:16.758Z,72.44
2019-06-07T06:12:34.245Z,72.64
2019-06-07T06:13:17.740Z,72.64
2019-06-07T06:14:16.746Z,72.75
2019-06-07T06:15:16.730Z,72.55
2019-06-07T06:16:16.714Z,72.85
2019-06-07T06:17:16.686Z,73.05
2019-06-07T06:18:16.687Z,73.15
2019-06-07T06:19:16.637Z,72.95
2019-06-07T06:20:16.661Z,72.85
2019-06-07T06:21:19.957Z,73.75
2019-06-07T06:22:16.635Z,74.06
2019-06-07T06:23:16.632Z,73.25
2019-06-07T06:24:16.590Z,73.02
2019-06-07T06:25:31.829Z,73.52
2019-06-07T06:26:17.571Z,74.53
2019-06-07T06:28:02.075Z,73.62
2019-06-07T06:28:17.549Z,73.42
2019-06-07T06:29:16.541Z,74.53
2019-06-07T06:30:16.522Z,72.21
2019-06-07T06:31:16.548Z,72.31
2019-06-07T06:32:41.336Z,72.31
2019-06-07T06:33:33.150Z,71.70
2019-06-07T06:34:17.478Z,71.91
2019-06-07T06:35:16.459Z,71.30
2019-06-07T06:36:16.509Z,70.49
2019-06-07T06:37:16.439Z,71.70
2019-06-07T06:38:16.452Z,71.50
2019-06-07T06:39:16.483Z,70.79
2019-06-07T06:40:16.417Z,71.70
2019-06-07T06:41:16.853Z,71.80
2019-06-07T06:42:16.401Z,71.70
2019-06-07T06:43:16.557Z,70.59
2019-06-07T06:44:16.367Z,70.66
2019-06-07T06:45:16.365Z,71.77
2019-06-07T06:46:37.439Z,71.47
2019-06-07T06:47:17.334Z,72.38
2019-06-07T06:48:16.354Z,72.17
2019-06-07T06:49:16.305Z,72.68
2019-06-07T06:50:16.298Z,72.17
2019-06-07T06:51:16.340Z,71.23
2019-06-07T06:52:16.281Z,70.83
2019-06-07T06:53:16.289Z,70.22
2019-06-07T06:54:16.255Z,70.02
2019-06-07T06:55:16.247Z,69.31
2019-06-07T06:56:16.302Z,67.87
2019-06-07T06:57:20.111Z,66.46
2019-06-07T06:58:16.242Z,65.75
2019-06-07T07:00:17.191Z,67.63
2019-06-07T07:01:16.186Z,68.07
2019-06-07T07:02:16.167Z,68.17
2019-06-07T07:03:56.433Z,67.36
2019-06-07T07:04:18.027Z,67.67
2019-06-07T07:05:16.137Z,67.87
2019-06-07T07:06:25.961Z,68.48
2019-06-07T07:07:17.105Z,68.17
2019-06-07T07:08:16.119Z,67.67
2019-06-07T07:09:16.085Z,67.77
2019-06-07T07:10:16.070Z,67.57
2019-06-07T07:11:16.083Z,64.84
2019-06-07T07:12:16.056Z,63.33
2019-06-07T07:13:16.073Z,63.84
2019-06-07T07:14:16.217Z,63.33
2019-06-07T07:15:16.042Z,62.02
2019-06-07T07:16:16.007Z,62.93
2019-06-07T07:17:16.001Z,62.83
2019-06-07T07:18:15.981Z,63.64
2019-06-07T07:19:16.014Z,62.22
2019-06-07T07:20:16.008Z,63.03
2019-06-07T07:21:15.963Z,63.84
2019-06-07T07:22:15.945Z,63.13
2019-06-07T07:23:17.402Z,63.84
2019-06-07T07:24:21.726Z,63.84
2019-06-07T07:25:17.001Z,64.51
2019-06-07T07:26:15.923Z,64.92
2019-06-07T07:27:15.883Z,65.12
2019-06-07T07:28:15.887Z,64.21
2019-06-07T07:29:15.893Z,64.24
2019-06-07T07:30:36.169Z,64.72
2019-06-07T07:31:16.854Z,63.40
2019-06-07T07:32:15.847Z,63.50
2019-06-07T07:33:16.218Z,63.57
2019-06-07T07:34:37.776Z,63.37
2019-06-07T07:35:16.810Z,62.16
2019-06-07T07:36:37.469Z,61.66
2019-06-07T07:37:16.769Z,61.66
2019-06-07T07:38:15.777Z,61.93
2019-06-07T07:39:17.253Z,60.96
2019-06-07T07:40:56.398Z,61.23
2019-06-07T07:41:16.756Z,61.73
2019-06-07T07:42:21.254Z,60.96
2019-06-07T07:43:16.742Z,61.03
2019-06-07T07:44:15.745Z,61.03
2019-06-07T07:45:15.699Z,61.03
2019-06-07T07:46:30.808Z,59.82
2019-06-07T07:47:16.806Z,60.63
2019-06-07T07:48:18.408Z,61.03
2019-06-07T07:49:15.728Z,61.63
2019-06-07T07:50:15.649Z,61.33
2019-06-07T07:51:15.613Z,61.53
2019-06-07T07:52:15.627Z,60.89
2019-06-07T07:53:15.590Z,60.39
2019-06-07T07:54:15.588Z,59.82
2019-06-07T07:55:15.620Z,59.79
2019-06-07T07:56:16.288Z,58.98
2019-06-07T07:57:15.550Z,59.48
2019-06-07T07:58:15.562Z,59.39
2019-06-07T07:59:15.520Z,58.98
2019-06-07T08:00:49.412Z,59.69
2019-06-07T08:01:16.542Z,59.48
2019-06-07T08:02:15.540Z,59.79
2019-06-07T08:03:15.491Z,60.60
2019-06-07T08:04:15.488Z,61.60
2019-06-07T08:05:25.221Z,60.60
2019-06-07T08:06:16.462Z,60.80
2019-06-07T08:07:15.429Z,61.57
2019-06-07T08:08:15.441Z,61.87
2019-06-07T08:09:15.401Z,59.76
2019-06-07T08:10:15.395Z,60.44
2019-06-07T08:11:15.407Z,60.33
2019-06-07T08:12:15.374Z,59.43
2019-06-07T08:13:24.800Z,59.13
2019-06-07T08:14:16.353Z,59.13
2019-06-07T08:15:15.354Z,58.80
2019-06-07T08:16:18.557Z,58.80
2019-06-07T08:17:15.319Z,59.03
2019-06-07T08:18:15.311Z,58.90
2019-06-07T08:19:15.297Z,58.70
2019-06-07T08:20:15.297Z,59.30
2019-06-07T08:21:25.602Z,58.29
2019-06-07T08:22:16.261Z,57.97
2019-06-07T08:23:15.265Z,57.70
2019-06-07T08:24:15.243Z,57.90
2019-06-07T08:25:15.232Z,57.97
2019-06-07T08:26:15.246Z,57.97
2019-06-07T08:27:25.993Z,59.30
2019-06-07T08:28:16.191Z,59.47
2019-06-07T08:29:15.192Z,58.40
2019-06-07T08:30:47.267Z,58.40
2019-06-07T08:31:16.187Z,57.46
2019-06-07T08:32:15.155Z,57.50
2019-06-07T08:33:25.909Z,58.50
2019-06-07T08:34:16.134Z,58.40
2019-06-07T08:36:02.524Z,58.00
2019-06-07T08:36:25.148Z,59.30
2019-06-07T08:37:16.093Z,59.80
2019-06-07T08:38:26.705Z,58.90
2019-06-07T08:39:16.071Z,58.60
2019-06-07T08:40:15.072Z,59.20
2019-06-07T08:41:15.076Z,58.90
2019-06-07T08:42:21.374Z,58.80
2019-06-07T08:43:20.745Z,59.20
2019-06-07T08:44:23.891Z,58.40
2019-06-07T08:45:16.008Z,58.07
2019-06-07T08:46:14.993Z,58.17
2019-06-07T08:47:20.513Z,57.97
2019-06-07T08:48:27.521Z,58.29
2019-06-07T08:49:15.963Z,58.87
2019-06-07T08:50:14.946Z,58.67
2019-06-07T08:51:14.935Z,58.37
2019-06-07T08:52:15.093Z,57.44
2019-06-07T08:53:14.927Z,57.04
2019-06-07T08:54:23.007Z,56.43
2019-06-07T08:55:15.918Z,56.43
2019-06-07T08:56:14.895Z,56.61
2019-06-07T08:57:21.234Z,56.91
2019-06-07T08:58:15.868Z,56.81
2019-06-07T08:59:14.851Z,56.71
2019-06-07T09:00:42.921Z,57.18
2019-06-07T09:01:15.834Z,56.88
2019-06-07T09:02:23.698Z,56.76
2019-06-07T09:03:15.797Z,56.56
2019-06-07T09:04:14.856Z,55.75
2019-06-07T09:05:14.776Z,55.75
2019-06-07T09:07:01.147Z,55.63
2019-06-07T09:07:19.846Z,55.63
2019-06-07T09:08:29.311Z,54.82
2019-06-07T09:09:15.735Z,55.22
2019-06-07T09:10:15.482Z,54.72
2019-06-07T09:11:14.716Z,54.82
2019-06-07T09:12:14.736Z,55.10
2019-06-07T09:13:14.707Z,53.89
2019-06-07T09:14:14.684Z,53.19
2019-06-07T09:15:22.677Z,53.39
2019-06-07T09:16:15.660Z,53.19
2019-06-07T09:17:14.673Z,53.07
2019-06-07T09:19:15.626Z,54.47
2019-06-07T09:20:35.208Z,55.50
2019-06-07T09:21:15.622Z,55.67
2019-06-07T09:22:14.606Z,55.10
2019-06-07T09:23:17.435Z,54.77
2019-06-07T09:24:14.566Z,54.00
2019-06-07T09:25:20.963Z,54.80
2019-06-07T09:26:18.164Z,55.10
2019-06-07T09:27:14.623Z,53.50
2019-06-07T09:28:19.784Z,53.39
2019-06-07T09:29:15.508Z,53.39
2019-06-07T09:30:18.498Z,54.10
2019-06-07T09:31:14.528Z,53.19
2019-06-07T09:32:18.262Z,53.27
2019-06-07T09:33:14.499Z,53.50
2019-06-07T09:34:15.509Z,53.09
2019-06-07T09:35:17.563Z,52.77
2019-06-07T09:36:14.434Z,53.50
2019-06-07T09:38:02.747Z,53.39
2019-06-07T09:38:24.904Z,53.59
2019-06-07T09:39:15.391Z,53.27
2019-06-07T09:40:24.894Z,53.09
2019-06-07T09:41:15.379Z,53.09
2019-06-07T09:42:14.410Z,53.00
2019-06-07T09:44:24.614Z,53.32
2019-06-07T09:45:15.338Z,53.22
2019-06-07T09:46:16.270Z,54.32
2019-06-07T09:47:31.295Z,55.32
2019-06-07T09:48:23.988Z,54.82
2019-06-07T09:49:28.600Z,54.35
2019-06-07T09:50:15.280Z,55.25
2019-06-07T09:51:19.790Z,55.35
2019-06-07T09:52:15.257Z,54.85
2019-06-07T09:53:22.642Z,54.15
2019-06-07T09:55:02.536Z,54.35
2019-06-07T09:55:24.424Z,54.65
2019-06-07T09:56:15.224Z,54.65
2019-06-07T09:57:17.473Z,54.72
2019-06-07T09:59:15.199Z,53.82
2019-06-07T10:00:38.666Z,54.12
2019-06-07T10:01:15.165Z,54.52
2019-06-07T10:02:14.143Z,53.42
2019-06-07T10:03:21.174Z,54.22
2019-06-07T10:04:30.368Z,54.82
2019-06-07T10:05:15.197Z,54.43
2019-06-07T10:06:14.131Z,54.93
2019-06-07T10:07:30.562Z,53.59
2019-06-07T10:09:15.156Z,54.30
2019-06-07T10:11:15.040Z,54.90
2019-06-07T10:12:14.026Z,54.60
2019-06-07T10:13:14.021Z,53.89
2019-06-07T10:14:14.034Z,54.39
2019-06-07T10:15:13.992Z,53.97
2019-06-07T10:16:14.013Z,54.37
2019-06-07T10:17:13.988Z,55.17
2019-06-07T10:18:13.965Z,55.07
2019-06-07T10:19:13.971Z,54.74
2019-06-07T10:20:13.965Z,55.07
2019-06-07T10:21:15.082Z,54.44
2019-06-07T10:22:13.921Z,54.94
2019-06-07T10:23:13.901Z,53.94
2019-06-07T10:24:13.907Z,53.92
2019-06-07T10:25:13.922Z,53.12
2019-06-07T10:26:13.879Z,53.12
2019-06-07T10:27:13.875Z,53.49
2019-06-07T10:28:13.947Z,53.19
2019-06-07T10:29:13.838Z,53.30
2019-06-07T10:30:13.875Z,52.37
2019-06-07T10:31:13.815Z,51.77
2019-06-07T10:32:13.816Z,51.17
2019-06-07T10:33:13.804Z,50.87
2019-06-07T10:34:13.823Z,50.67
2019-06-07T10:35:16.329Z,50.95
2019-06-07T10:36:13.762Z,50.67
2019-06-07T10:37:15.563Z,50.45
2019-06-07T10:38:13.740Z,50.45
2019-06-07T10:39:13.829Z,50.45
2019-06-07T10:40:13.747Z,50.95
2019-06-07T10:41:13.702Z,50.35
2019-06-07T10:42:13.701Z,51.04
2019-06-07T10:43:14.538Z,50.65
2019-06-07T10:44:13.685Z,51.17
2019-06-07T10:45:13.688Z,50.74
2019-06-07T10:46:13.654Z,50.45
2019-06-07T10:47:13.632Z,50.57
2019-06-07T10:48:13.626Z,50.57
2019-06-07T10:49:13.635Z,50.57
2019-06-07T10:50:13.630Z,50.57
2019-06-07T10:51:14.754Z,50.47
2019-06-07T10:52:13.594Z,50.89
2019-06-07T10:53:13.572Z,50.79
2019-06-07T10:54:24.122Z,50.47
2019-06-07T10:55:14.578Z,51.79
2019-06-07T10:56:13.551Z,51.89
2019-06-07T10:57:16.038Z,52.00
2019-06-07T10:58:13.514Z,51.89
2019-06-07T10:59:13.807Z,52.19
2019-06-07T11:00:13.668Z,52.59
2019-06-07T11:01:14.382Z,52.49
2019-06-07T11:02:14.049Z,53.09
2019-06-07T11:03:14.275Z,52.77
2019-06-07T11:04:13.853Z,52.57
2019-06-07T11:05:14.486Z,51.87
2019-06-07T11:06:14.249Z,53.67
2019-06-07T11:07:14.469Z,51.57
2019-06-07T11:08:14.921Z,52.57
2019-06-07T11:09:14.240Z,52.57
2019-06-07T11:10:19.348Z,52.77
2019-06-07T11:11:14.552Z,52.37
2019-06-07T11:12:15.113Z,51.47
2019-06-07T11:13:14.479Z,51.34
2019-06-07T11:14:14.621Z,51.04
2019-06-07T11:15:14.868Z,49.95
2019-06-07T11:16:13.346Z,49.87
2019-06-07T11:17:13.468Z,50.57
2019-06-07T11:18:14.410Z,50.87
2019-06-07T11:19:16.905Z,51.77
2019-06-07T11:20:14.419Z,51.27
2019-06-07T11:21:14.296Z,51.67
2019-06-07T11:22:14.254Z,51.64
2019-06-07T11:23:14.317Z,52.34
2019-06-07T11:24:14.431Z,52.25
2019-06-07T11:25:14.591Z,51.45
2019-06-07T11:26:14.442Z,53.24
2019-06-07T11:27:13.896Z,53.74
2019-06-07T11:28:14.494Z,53.44
2019-06-07T11:29:14.707Z,53.22
2019-06-07T11:30:14.438Z,51.62
2019-06-07T11:31:13.386Z,50.92
2019-06-07T11:32:14.560Z,50.92
2019-06-07T11:33:15.795Z,50.62
2019-06-07T11:34:13.143Z,50.62
2019-06-07T11:35:14.055Z,50.72
2019-06-07T11:36:13.120Z,50.62
2019-06-07T11:37:13.871Z,50.42
2019-06-07T11:38:13.078Z,50.52
2019-06-07T11:39:13.051Z,50.92
2019-06-07T11:40:35.609Z,50.42
2019-06-07T11:41:14.030Z,50.82
2019-06-07T11:42:13.991Z,51.22
2019-06-07T11:43:13.009Z,50.62
2019-06-07T11:44:13.099Z,50.92
2019-06-07T11:45:15.259Z,51.82
2019-06-07T11:46:13.046Z,52.72
2019-06-07T11:47:14.433Z,53.02
2019-06-07T11:48:13.500Z,52.92
2019-06-07T11:49:14.894Z,53.52
2019-06-07T11:50:13.945Z,52.22
2019-06-07T11:51:12.945Z,52.42
2019-06-07T11:52:13.918Z,52.92
2019-06-07T11:53:12.977Z,52.52
2019-06-07T11:54:14.004Z,51.72
2019-06-07T11:55:13.595Z,51.62
2019-06-07T11:56:13.979Z,51.22
2019-06-07T11:57:13.051Z,50.99
2019-06-07T11:58:16.545Z,50.72
2019-06-07T11:59:13.845Z,50.22
2019-06-07T12:00:13.917Z,50.12
2019-06-07T12:01:14.884Z,50.62
2019-06-07T12:02:13.401Z,50.42
2019-06-07T12:03:13.853Z,51.12
2019-06-07T12:04:14.086Z,52.12
2019-06-07T12:05:17.198Z,51.52
2019-06-07T12:06:14.593Z,52.19
2019-06-07T12:07:14.156Z,52.09
2019-06-07T12:08:13.932Z,52.19
2019-06-07T12:09:12.727Z,51.92
2019-06-07T12:10:12.713Z,51.79
2019-06-07T12:11:12.705Z,50.99
2019-06-07T12:12:12.722Z,50.90
2019-06-07T12:13:12.684Z,51.32
2019-06-07T12:14:12.911Z,52.29
2019-06-07T12:15:12.952Z,52.32
2019-06-07T12:16:13.304Z,52.29
2019-06-07T12:17:13.395Z,51.70
2019-06-07T12:18:13.140Z,51.79
2019-06-07T12:19:13.581Z,52.09
2019-06-07T12:20:14.551Z,52.49
2019-06-07T12:21:13.650Z,50.99
2019-06-07T12:22:13.677Z,50.60
2019-06-07T12:23:13.866Z,50.10
2019-06-07T12:24:13.879Z,50.40
2019-06-07T12:25:17.796Z,51.50
2019-06-07T12:26:14.581Z,52.09
2019-06-07T12:27:12.806Z,51.79
2019-06-07T12:28:12.716Z,51.97
2019-06-07T12:29:12.789Z,51.27
2019-06-07T12:30:20.336Z,51.57
2019-06-07T12:31:13.466Z,52.87
2019-06-07T12:32:13.291Z,53.66
2019-06-07T12:33:13.413Z,53.24
2019-06-07T12:34:13.271Z,50.27
2019-06-07T12:35:13.600Z,49.45
2019-06-07T12:36:13.548Z,50.65
2019-06-07T12:37:13.616Z,50.74
2019-06-07T12:38:12.898Z,50.25
2019-06-07T12:39:12.401Z,50.35
2019-06-07T12:40:22.812Z,50.55
2019-06-07T12:41:14.067Z,50.05
2019-06-07T12:42:12.488Z,50.65
2019-06-07T12:43:12.441Z,50.65
2019-06-07T12:44:12.617Z,49.95
2019-06-07T12:45:12.886Z,50.25
2019-06-07T12:46:17.473Z,49.85
2019-06-07T12:47:13.296Z,50.85
2019-06-07T12:48:16.246Z,50.65
2019-06-07T12:49:13.277Z,50.73
2019-06-07T12:50:13.484Z,49.85
2019-06-07T12:51:13.131Z,49.43
2019-06-07T12:52:14.623Z,49.43
2019-06-07T12:53:13.697Z,50.32
2019-06-07T12:54:13.273Z,50.82
2019-06-07T12:55:13.783Z,49.03
2019-06-07T12:56:13.534Z,49.43
2019-06-07T12:57:12.190Z,49.13
2019-06-07T12:58:12.199Z,49.83
2019-06-07T12:59:12.170Z,50.62
2019-06-07T13:00:12.161Z,51.03
2019-06-07T13:01:12.138Z,50.30